sensor_id;sensor_type;location;lat;lon;timestamp;P1;durP1;ratioP1;P2;durP2;ratioP2
31966;SDS011;18496;52.042;6.812;2023-07-29T00:00:07;4.90;;;3.90;;
31966;SDS011;18496;52.042;6.812;2023-07-29T00:02:18;4.55;;;3.70;;
31966;SDS011;18496;52.042;6.812;2023-07-29T00:04:21;6.18;;;4.60;;
31966;SDS011;18496;52.042;6.812;2023-07-29T00:06:25;9.75;;;3.92;;
31966;SDS011;18496;52.042;6.812;2023-07-29T00:08:29;8.25;;;4.28;;
31966;SDS011;18496;52.042;6.812;2023-07-29T00:10:35;4.88;;;3.97;;
31966;SDS011;18496;52.042;6.812;2023-07-29T00:12:39;6.75;;;4.50;;
31966;SDS011;18496;52.042;6.812;2023-07-29T00:14:43;6.65;;;3.78;;
31966;SDS011;18496;52.042;6.812;2023-07-29T00:16:47;6.72;;;4.13;;
31966;SDS011;18496;52.042;6.812;2023-07-29T00:18:51;6.03;;;4.25;;
31966;SDS011;18496;52.042;6.812;2023-07-29T00:20:54;5.55;;;4.22;;
31966;SDS011;18496;52.042;6.812;2023-07-29T00:22:59;8.73;;;4.93;;
31966;SDS011;18496;52.042;6.812;2023-07-29T00:25:02;13.77;;;5.43;;
31966;SDS011;18496;52.042;6.812;2023-07-29T00:27:06;9.30;;;4.10;;
31966;SDS011;18496;52.042;6.812;2023-07-29T00:29:10;7.50;;;4.93;;
31966;SDS011;18496;52.042;6.812;2023-07-29T00:31:14;5.47;;;4.43;;
31966;SDS011;18496;52.042;6.812;2023-07-29T00:33:17;9.18;;;4.60;;
31966;SDS011;18496;52.042;6.812;2023-07-29T00:35:21;5.82;;;4.13;;
31966;SDS011;18496;52.042;6.812;2023-07-29T00:37:25;8.55;;;4.07;;
31966;SDS011;18496;52.042;6.812;2023-07-29T00:39:29;6.25;;;3.95;;
31966;SDS011;18496;52.042;6.812;2023-07-29T00:41:32;10.38;;;4.85;;
31966;SDS011;18496;52.042;6.812;2023-07-29T00:43:36;9.52;;;4.20;;
31966;SDS011;18496;52.042;6.812;2023-07-29T00:45:40;8.90;;;4.60;;
31966;SDS011;18496;52.042;6.812;2023-07-29T00:47:46;7.88;;;3.97;;
31966;SDS011;18496;52.042;6.812;2023-07-29T00:49:50;9.48;;;4.35;;
31966;SDS011;18496;52.042;6.812;2023-07-29T00:51:54;6.47;;;4.82;;
31966;SDS011;18496;52.042;6.812;2023-07-29T00:53:58;7.53;;;4.50;;
31966;SDS011;18496;52.042;6.812;2023-07-29T00:56:01;10.00;;;4.28;;
31966;SDS011;18496;52.042;6.812;2023-07-29T00:58:05;5.00;;;4.45;;
31966;SDS011;18496;52.042;6.812;2023-07-29T01:00:10;5.80;;;4.03;;
31966;SDS011;18496;52.042;6.812;2023-07-29T01:02:14;5.85;;;3.88;;
31966;SDS011;18496;52.042;6.812;2023-07-29T01:04:17;7.07;;;4.20;;
31966;SDS011;18496;52.042;6.812;2023-07-29T01:06:23;5.05;;;3.92;;
31966;SDS011;18496;52.042;6.812;2023-07-29T01:11:18;5.95;;;4.03;;
31966;SDS011;18496;52.042;6.812;2023-07-29T01:13:50;6.80;;;3.97;;
31966;SDS011;18496;52.042;6.812;2023-07-29T01:16:41;5.70;;;4.55;;
31966;SDS011;18496;52.042;6.812;2023-07-29T01:18:47;5.65;;;3.75;;
31966;SDS011;18496;52.042;6.812;2023-07-29T01:20:53;5.47;;;4.15;;
31966;SDS011;18496;52.042;6.812;2023-07-29T01:23:00;4.60;;;3.63;;
31966;SDS011;18496;52.042;6.812;2023-07-29T01:25:04;5.18;;;3.78;;
31966;SDS011;18496;52.042;6.812;2023-07-29T01:27:08;6.68;;;3.72;;
31966;SDS011;18496;52.042;6.812;2023-07-29T01:29:12;7.80;;;3.67;;
31966;SDS011;18496;52.042;6.812;2023-07-29T01:33:35;4.95;;;3.63;;
31966;SDS011;18496;52.042;6.812;2023-07-29T01:35:48;5.55;;;3.50;;
31966;SDS011;18496;52.042;6.812;2023-07-29T01:37:55;5.25;;;3.67;;
31966;SDS011;18496;52.042;6.812;2023-07-29T01:40:02;5.60;;;3.78;;
31966;SDS011;18496;52.042;6.812;2023-07-29T01:42:08;5.75;;;3.33;;
31966;SDS011;18496;52.042;6.812;2023-07-29T01:44:12;5.22;;;3.53;;
31966;SDS011;18496;52.042;6.812;2023-07-29T01:46:17;4.57;;;3.17;;
31966;SDS011;18496;52.042;6.812;2023-07-29T01:48:20;6.20;;;3.42;;
31966;SDS011;18496;52.042;6.812;2023-07-29T01:50:30;6.35;;;3.70;;
31966;SDS011;18496;52.042;6.812;2023-07-29T01:52:35;3.58;;;3.08;;
31966;SDS011;18496;52.042;6.812;2023-07-29T01:54:39;4.32;;;3.72;;
31966;SDS011;18496;52.042;6.812;2023-07-29T01:56:42;4.53;;;3.80;;
31966;SDS011;18496;52.042;6.812;2023-07-29T01:58:46;7.32;;;3.78;;
31966;SDS011;18496;52.042;6.812;2023-07-29T02:00:50;5.18;;;3.05;;
31966;SDS011;18496;52.042;6.812;2023-07-29T02:02:53;5.57;;;3.90;;
31966;SDS011;18496;52.042;6.812;2023-07-29T02:04:57;3.33;;;3.03;;
31966;SDS011;18496;52.042;6.812;2023-07-29T02:07:01;6.55;;;3.97;;
31966;SDS011;18496;52.042;6.812;2023-07-29T02:09:04;5.43;;;3.80;;
31966;SDS011;18496;52.042;6.812;2023-07-29T02:11:08;5.88;;;3.78;;
31966;SDS011;18496;52.042;6.812;2023-07-29T02:13:12;6.32;;;3.65;;
31966;SDS011;18496;52.042;6.812;2023-07-29T02:15:15;5.18;;;3.60;;
31966;SDS011;18496;52.042;6.812;2023-07-29T02:17:19;7.43;;;3.38;;
31966;SDS011;18496;52.042;6.812;2023-07-29T02:19:24;6.38;;;3.38;;
31966;SDS011;18496;52.042;6.812;2023-07-29T02:21:27;6.38;;;3.63;;
31966;SDS011;18496;52.042;6.812;2023-07-29T02:23:31;4.50;;;3.67;;
31966;SDS011;18496;52.042;6.812;2023-07-29T02:25:35;5.57;;;3.67;;
31966;SDS011;18496;52.042;6.812;2023-07-29T02:27:39;6.07;;;3.10;;
31966;SDS011;18496;52.042;6.812;2023-07-29T02:29:43;4.80;;;3.75;;
31966;SDS011;18496;52.042;6.812;2023-07-29T02:31:47;5.30;;;3.70;;
31966;SDS011;18496;52.042;6.812;2023-07-29T02:33:51;5.05;;;3.30;;
31966;SDS011;18496;52.042;6.812;2023-07-29T02:35:55;8.27;;;3.65;;
31966;SDS011;18496;52.042;6.812;2023-07-29T02:37:59;4.30;;;3.17;;
31966;SDS011;18496;52.042;6.812;2023-07-29T02:40:03;4.60;;;4.10;;
31966;SDS011;18496;52.042;6.812;2023-07-29T02:42:07;5.20;;;3.45;;
31966;SDS011;18496;52.042;6.812;2023-07-29T02:44:11;4.20;;;3.22;;
31966;SDS011;18496;52.042;6.812;2023-07-29T02:46:14;8.93;;;3.97;;
31966;SDS011;18496;52.042;6.812;2023-07-29T02:48:18;4.63;;;3.58;;
31966;SDS011;18496;52.042;6.812;2023-07-29T02:50:22;5.13;;;3.80;;
31966;SDS011;18496;52.042;6.812;2023-07-29T02:52:25;6.60;;;4.30;;
31966;SDS011;18496;52.042;6.812;2023-07-29T02:54:29;9.32;;;3.83;;
31966;SDS011;18496;52.042;6.812;2023-07-29T02:56:33;6.82;;;4.03;;
31966;SDS011;18496;52.042;6.812;2023-07-29T02:58:37;5.78;;;4.30;;
31966;SDS011;18496;52.042;6.812;2023-07-29T03:00:40;4.90;;;4.00;;
31966;SDS011;18496;52.042;6.812;2023-07-29T03:02:47;6.00;;;3.58;;
31966;SDS011;18496;52.042;6.812;2023-07-29T03:04:50;5.57;;;4.07;;
31966;SDS011;18496;52.042;6.812;2023-07-29T03:06:54;4.78;;;4.13;;
31966;SDS011;18496;52.042;6.812;2023-07-29T03:08:58;8.82;;;3.88;;
31966;SDS011;18496;52.042;6.812;2023-07-29T03:11:07;4.72;;;3.90;;
31966;SDS011;18496;52.042;6.812;2023-07-29T03:13:18;5.45;;;4.05;;
31966;SDS011;18496;52.042;6.812;2023-07-29T03:15:25;7.40;;;4.03;;
31966;SDS011;18496;52.042;6.812;2023-07-29T03:17:29;5.55;;;3.80;;
31966;SDS011;18496;52.042;6.812;2023-07-29T03:19:33;5.35;;;3.70;;
31966;SDS011;18496;52.042;6.812;2023-07-29T03:21:36;8.18;;;4.18;;
31966;SDS011;18496;52.042;6.812;2023-07-29T03:23:40;6.88;;;4.35;;
31966;SDS011;18496;52.042;6.812;2023-07-29T03:25:47;6.03;;;4.05;;
31966;SDS011;18496;52.042;6.812;2023-07-29T03:27:52;6.85;;;3.95;;
31966;SDS011;18496;52.042;6.812;2023-07-29T03:29:55;5.72;;;4.32;;
31966;SDS011;18496;52.042;6.812;2023-07-29T03:31:59;6.78;;;4.43;;
31966;SDS011;18496;52.042;6.812;2023-07-29T03:34:03;4.88;;;4.38;;
31966;SDS011;18496;52.042;6.812;2023-07-29T03:36:07;5.00;;;3.75;;
31966;SDS011;18496;52.042;6.812;2023-07-29T03:38:11;7.30;;;3.90;;
31966;SDS011;18496;52.042;6.812;2023-07-29T03:40:15;6.38;;;4.20;;
31966;SDS011;18496;52.042;6.812;2023-07-29T03:42:19;6.00;;;4.03;;
31966;SDS011;18496;52.042;6.812;2023-07-29T03:44:22;4.78;;;3.90;;
31966;SDS011;18496;52.042;6.812;2023-07-29T03:46:26;6.53;;;4.30;;
31966;SDS011;18496;52.042;6.812;2023-07-29T03:48:30;10.18;;;4.78;;
31966;SDS011;18496;52.042;6.812;2023-07-29T03:50:35;6.95;;;4.07;;
31966;SDS011;18496;52.042;6.812;2023-07-29T03:52:39;7.30;;;4.10;;
31966;SDS011;18496;52.042;6.812;2023-07-29T03:54:43;4.97;;;4.03;;
31966;SDS011;18496;52.042;6.812;2023-07-29T03:56:46;5.82;;;3.70;;
31966;SDS011;18496;52.042;6.812;2023-07-29T03:58:50;7.30;;;4.47;;
31966;SDS011;18496;52.042;6.812;2023-07-29T04:00:55;6.82;;;3.70;;
31966;SDS011;18496;52.042;6.812;2023-07-29T04:02:59;6.13;;;4.22;;
31966;SDS011;18496;52.042;6.812;2023-07-29T04:05:03;6.65;;;4.50;;
31966;SDS011;18496;52.042;6.812;2023-07-29T04:07:08;4.53;;;3.97;;
31966;SDS011;18496;52.042;6.812;2023-07-29T04:09:11;5.43;;;3.75;;
31966;SDS011;18496;52.042;6.812;2023-07-29T04:11:15;7.13;;;4.32;;
31966;SDS011;18496;52.042;6.812;2023-07-29T04:13:19;8.05;;;4.57;;
31966;SDS011;18496;52.042;6.812;2023-07-29T04:15:23;6.25;;;4.72;;
31966;SDS011;18496;52.042;6.812;2023-07-29T04:17:26;7.03;;;5.20;;
31966;SDS011;18496;52.042;6.812;2023-07-29T04:19:30;5.72;;;4.88;;
31966;SDS011;18496;52.042;6.812;2023-07-29T04:21:34;8.43;;;6.03;;
31966;SDS011;18496;52.042;6.812;2023-07-29T04:23:38;6.13;;;5.18;;
31966;SDS011;18496;52.042;6.812;2023-07-29T04:25:43;11.82;;;4.88;;
31966;SDS011;18496;52.042;6.812;2023-07-29T04:27:46;8.13;;;5.38;;
31966;SDS011;18496;52.042;6.812;2023-07-29T04:29:50;8.52;;;6.35;;
31966;SDS011;18496;52.042;6.812;2023-07-29T04:31:54;9.93;;;5.85;;
31966;SDS011;18496;52.042;6.812;2023-07-29T04:33:57;8.73;;;6.93;;
31966;SDS011;18496;52.042;6.812;2023-07-29T04:36:01;10.20;;;6.75;;
31966;SDS011;18496;52.042;6.812;2023-07-29T04:38:05;9.45;;;6.78;;
31966;SDS011;18496;52.042;6.812;2023-07-29T04:40:09;8.65;;;6.60;;
31966;SDS011;18496;52.042;6.812;2023-07-29T04:42:13;6.80;;;5.70;;
31966;SDS011;18496;52.042;6.812;2023-07-29T04:44:17;8.07;;;6.80;;
31966;SDS011;18496;52.042;6.812;2023-07-29T04:46:22;13.65;;;8.00;;
31966;SDS011;18496;52.042;6.812;2023-07-29T04:48:25;9.65;;;7.00;;
31966;SDS011;18496;52.042;6.812;2023-07-29T04:50:29;11.43;;;7.95;;
31966;SDS011;18496;52.042;6.812;2023-07-29T04:52:34;11.68;;;7.95;;
31966;SDS011;18496;52.042;6.812;2023-07-29T04:54:37;11.15;;;8.40;;
31966;SDS011;18496;52.042;6.812;2023-07-29T04:56:41;14.70;;;8.35;;
31966;SDS011;18496;52.042;6.812;2023-07-29T04:58:45;13.05;;;8.35;;
31966;SDS011;18496;52.042;6.812;2023-07-29T05:00:49;17.33;;;8.90;;
31966;SDS011;18496;52.042;6.812;2023-07-29T05:02:52;12.32;;;8.57;;
31966;SDS011;18496;52.042;6.812;2023-07-29T05:04:56;10.93;;;8.65;;
31966;SDS011;18496;52.042;6.812;2023-07-29T05:07:00;12.52;;;8.50;;
31966;SDS011;18496;52.042;6.812;2023-07-29T05:09:14;15.80;;;9.10;;
31966;SDS011;18496;52.042;6.812;2023-07-29T05:11:22;11.73;;;8.93;;
31966;SDS011;18496;52.042;6.812;2023-07-29T05:13:28;10.10;;;7.55;;
31966;SDS011;18496;52.042;6.812;2023-07-29T05:15:32;8.93;;;6.90;;
31966;SDS011;18496;52.042;6.812;2023-07-29T05:17:36;13.35;;;6.97;;
31966;SDS011;18496;52.042;6.812;2023-07-29T05:19:39;8.60;;;7.28;;
31966;SDS011;18496;52.042;6.812;2023-07-29T05:21:43;9.18;;;6.50;;
31966;SDS011;18496;52.042;6.812;2023-07-29T05:23:47;13.30;;;7.18;;
31966;SDS011;18496;52.042;6.812;2023-07-29T05:25:50;8.45;;;5.90;;
31966;SDS011;18496;52.042;6.812;2023-07-29T05:27:54;12.25;;;6.60;;
31966;SDS011;18496;52.042;6.812;2023-07-29T05:29:58;10.13;;;6.75;;
31966;SDS011;18496;52.042;6.812;2023-07-29T05:32:02;8.27;;;5.97;;
31966;SDS011;18496;52.042;6.812;2023-07-29T05:34:05;8.43;;;5.63;;
31966;SDS011;18496;52.042;6.812;2023-07-29T05:36:09;10.02;;;6.07;;
31966;SDS011;18496;52.042;6.812;2023-07-29T05:38:13;9.32;;;6.10;;
31966;SDS011;18496;52.042;6.812;2023-07-29T05:40:17;7.97;;;6.18;;
31966;SDS011;18496;52.042;6.812;2023-07-29T05:42:21;10.85;;;5.95;;
31966;SDS011;18496;52.042;6.812;2023-07-29T05:44:25;8.55;;;5.85;;
31966;SDS011;18496;52.042;6.812;2023-07-29T05:46:28;8.45;;;5.72;;
31966;SDS011;18496;52.042;6.812;2023-07-29T05:48:32;8.02;;;5.63;;
31966;SDS011;18496;52.042;6.812;2023-07-29T05:50:37;8.63;;;5.50;;
31966;SDS011;18496;52.042;6.812;2023-07-29T05:52:40;9.93;;;5.32;;
31966;SDS011;18496;52.042;6.812;2023-07-29T05:54:44;11.27;;;5.70;;
31966;SDS011;18496;52.042;6.812;2023-07-29T05:56:48;8.98;;;5.57;;
31966;SDS011;18496;52.042;6.812;2023-07-29T05:58:52;7.68;;;5.18;;
31966;SDS011;18496;52.042;6.812;2023-07-29T06:00:57;8.40;;;4.80;;
31966;SDS011;18496;52.042;6.812;2023-07-29T06:03:01;6.53;;;5.07;;
31966;SDS011;18496;52.042;6.812;2023-07-29T06:05:05;7.70;;;4.60;;
31966;SDS011;18496;52.042;6.812;2023-07-29T06:07:09;9.38;;;4.90;;
31966;SDS011;18496;52.042;6.812;2023-07-29T06:09:13;9.02;;;4.10;;
31966;SDS011;18496;52.042;6.812;2023-07-29T06:11:17;7.90;;;4.38;;
31966;SDS011;18496;52.042;6.812;2023-07-29T06:13:21;9.07;;;3.75;;
31966;SDS011;18496;52.042;6.812;2023-07-29T06:15:24;5.40;;;3.72;;
31966;SDS011;18496;52.042;6.812;2023-07-29T06:17:28;5.55;;;3.92;;
31966;SDS011;18496;52.042;6.812;2023-07-29T06:19:32;5.70;;;3.90;;
31966;SDS011;18496;52.042;6.812;2023-07-29T06:21:35;7.00;;;3.40;;
31966;SDS011;18496;52.042;6.812;2023-07-29T06:23:39;5.18;;;3.15;;
31966;SDS011;18496;52.042;6.812;2023-07-29T06:25:43;5.03;;;3.55;;
31966;SDS011;18496;52.042;6.812;2023-07-29T06:27:46;7.22;;;4.03;;
31966;SDS011;18496;52.042;6.812;2023-07-29T06:29:50;6.05;;;3.60;;
31966;SDS011;18496;52.042;6.812;2023-07-29T06:31:54;7.07;;;3.97;;
31966;SDS011;18496;52.042;6.812;2023-07-29T06:33:58;6.75;;;4.35;;
31966;SDS011;18496;52.042;6.812;2023-07-29T06:36:01;6.95;;;4.18;;
31966;SDS011;18496;52.042;6.812;2023-07-29T06:38:05;7.60;;;4.10;;
31966;SDS011;18496;52.042;6.812;2023-07-29T06:40:09;5.10;;;3.78;;
31966;SDS011;18496;52.042;6.812;2023-07-29T06:42:13;5.57;;;3.70;;
31966;SDS011;18496;52.042;6.812;2023-07-29T06:44:16;9.65;;;3.95;;
31966;SDS011;18496;52.042;6.812;2023-07-29T06:46:20;5.90;;;4.20;;
31966;SDS011;18496;52.042;6.812;2023-07-29T06:48:24;6.28;;;4.43;;
31966;SDS011;18496;52.042;6.812;2023-07-29T06:50:27;7.45;;;4.00;;
31966;SDS011;18496;52.042;6.812;2023-07-29T06:52:31;4.97;;;3.70;;
31966;SDS011;18496;52.042;6.812;2023-07-29T06:54:35;6.85;;;4.00;;
31966;SDS011;18496;52.042;6.812;2023-07-29T06:56:38;12.23;;;4.40;;
31966;SDS011;18496;52.042;6.812;2023-07-29T06:58:42;10.13;;;4.68;;
31966;SDS011;18496;52.042;6.812;2023-07-29T07:00:45;7.72;;;4.50;;
31966;SDS011;18496;52.042;6.812;2023-07-29T07:02:49;8.63;;;4.68;;
31966;SDS011;18496;52.042;6.812;2023-07-29T07:04:53;8.23;;;4.55;;
31966;SDS011;18496;52.042;6.812;2023-07-29T07:06:56;7.97;;;4.55;;
31966;SDS011;18496;52.042;6.812;2023-07-29T07:09:00;9.55;;;4.95;;
31966;SDS011;18496;52.042;6.812;2023-07-29T07:11:04;9.65;;;4.53;;
31966;SDS011;18496;52.042;6.812;2023-07-29T07:13:07;10.30;;;5.85;;
31966;SDS011;18496;52.042;6.812;2023-07-29T07:15:11;8.00;;;4.82;;
31966;SDS011;18496;52.042;6.812;2023-07-29T07:17:14;7.20;;;4.68;;
31966;SDS011;18496;52.042;6.812;2023-07-29T07:19:18;11.88;;;5.20;;
31966;SDS011;18496;52.042;6.812;2023-07-29T07:21:22;12.82;;;5.25;;
31966;SDS011;18496;52.042;6.812;2023-07-29T07:23:25;9.13;;;5.22;;
31966;SDS011;18496;52.042;6.812;2023-07-29T07:25:29;9.63;;;4.57;;
31966;SDS011;18496;52.042;6.812;2023-07-29T07:27:32;7.50;;;4.88;;
31966;SDS011;18496;52.042;6.812;2023-07-29T07:29:36;8.73;;;5.03;;
31966;SDS011;18496;52.042;6.812;2023-07-29T07:31:40;7.72;;;4.72;;
31966;SDS011;18496;52.042;6.812;2023-07-29T07:33:44;8.88;;;4.82;;
31966;SDS011;18496;52.042;6.812;2023-07-29T07:35:47;8.95;;;5.22;;
31966;SDS011;18496;52.042;6.812;2023-07-29T07:37:51;9.93;;;4.75;;
31966;SDS011;18496;52.042;6.812;2023-07-29T07:39:55;5.10;;;3.83;;
31966;SDS011;18496;52.042;6.812;2023-07-29T07:41:58;11.32;;;4.45;;
31966;SDS011;18496;52.042;6.812;2023-07-29T07:44:02;8.93;;;4.65;;
31966;SDS011;18496;52.042;6.812;2023-07-29T07:46:06;7.18;;;4.53;;
31966;SDS011;18496;52.042;6.812;2023-07-29T07:48:09;10.13;;;4.70;;
31966;SDS011;18496;52.042;6.812;2023-07-29T07:50:14;7.72;;;4.18;;
31966;SDS011;18496;52.042;6.812;2023-07-29T07:52:18;12.73;;;5.45;;
31966;SDS011;18496;52.042;6.812;2023-07-29T07:54:22;7.68;;;4.88;;
31966;SDS011;18496;52.042;6.812;2023-07-29T07:56:25;7.05;;;4.78;;
31966;SDS011;18496;52.042;6.812;2023-07-29T07:58:29;9.57;;;5.28;;
31966;SDS011;18496;52.042;6.812;2023-07-29T08:00:32;11.50;;;4.93;;
31966;SDS011;18496;52.042;6.812;2023-07-29T08:02:36;11.63;;;5.32;;
31966;SDS011;18496;52.042;6.812;2023-07-29T08:04:40;9.63;;;4.63;;
31966;SDS011;18496;52.042;6.812;2023-07-29T08:06:43;7.63;;;4.47;;
31966;SDS011;18496;52.042;6.812;2023-07-29T08:08:47;8.63;;;4.43;;
31966;SDS011;18496;52.042;6.812;2023-07-29T08:10:52;8.00;;;4.80;;
31966;SDS011;18496;52.042;6.812;2023-07-29T08:12:56;9.55;;;4.78;;
31966;SDS011;18496;52.042;6.812;2023-07-29T08:15:00;14.10;;;4.95;;
31966;SDS011;18496;52.042;6.812;2023-07-29T08:17:03;11.30;;;4.60;;
31966;SDS011;18496;52.042;6.812;2023-07-29T08:19:07;9.52;;;4.88;;
31966;SDS011;18496;52.042;6.812;2023-07-29T08:21:12;6.95;;;4.22;;
31966;SDS011;18496;52.042;6.812;2023-07-29T08:23:16;6.65;;;4.32;;
31966;SDS011;18496;52.042;6.812;2023-07-29T08:25:20;7.00;;;4.10;;
31966;SDS011;18496;52.042;6.812;2023-07-29T08:27:23;6.72;;;4.28;;
31966;SDS011;18496;52.042;6.812;2023-07-29T08:29:27;6.00;;;3.95;;
31966;SDS011;18496;52.042;6.812;2023-07-29T08:31:30;7.63;;;4.32;;
31966;SDS011;18496;52.042;6.812;2023-07-29T08:33:36;11.10;;;4.95;;
31966;SDS011;18496;52.042;6.812;2023-07-29T08:35:40;7.53;;;3.80;;
31966;SDS011;18496;52.042;6.812;2023-07-29T08:37:43;6.13;;;4.25;;
31966;SDS011;18496;52.042;6.812;2023-07-29T08:39:47;8.88;;;4.70;;
31966;SDS011;18496;52.042;6.812;2023-07-29T08:45:58;5.47;;;3.65;;
31966;SDS011;18496;52.042;6.812;2023-07-29T08:48:04;13.18;;;4.00;;
31966;SDS011;18496;52.042;6.812;2023-07-29T08:50:13;7.53;;;3.55;;
31966;SDS011;18496;52.042;6.812;2023-07-29T08:52:18;9.63;;;3.97;;
31966;SDS011;18496;52.042;6.812;2023-07-29T08:54:22;6.80;;;3.75;;
31966;SDS011;18496;52.042;6.812;2023-07-29T08:56:26;4.07;;;2.72;;
31966;SDS011;18496;52.042;6.812;2023-07-29T08:58:31;6.80;;;3.92;;
31966;SDS011;18496;52.042;6.812;2023-07-29T09:00:35;6.28;;;4.00;;
31966;SDS011;18496;52.042;6.812;2023-07-29T09:02:39;7.70;;;4.07;;
31966;SDS011;18496;52.042;6.812;2023-07-29T09:04:42;7.13;;;4.00;;
31966;SDS011;18496;52.042;6.812;2023-07-29T09:06:47;6.35;;;3.83;;
31966;SDS011;18496;52.042;6.812;2023-07-29T09:08:54;6.13;;;3.67;;
31966;SDS011;18496;52.042;6.812;2023-07-29T09:11:01;8.00;;;3.42;;
31966;SDS011;18496;52.042;6.812;2023-07-29T09:13:05;4.78;;;3.50;;
31966;SDS011;18496;52.042;6.812;2023-07-29T09:15:09;8.00;;;3.65;;
31966;SDS011;18496;52.042;6.812;2023-07-29T09:17:12;8.50;;;3.40;;
31966;SDS011;18496;52.042;6.812;2023-07-29T09:19:17;4.30;;;3.40;;
31966;SDS011;18496;52.042;6.812;2023-07-29T09:21:24;6.85;;;3.17;;
31966;SDS011;18496;52.042;6.812;2023-07-29T09:23:40;4.20;;;2.92;;
31966;SDS011;18496;52.042;6.812;2023-07-29T09:25:47;4.50;;;2.63;;
31966;SDS011;18496;52.042;6.812;2023-07-29T09:27:51;3.85;;;3.10;;
31966;SDS011;18496;52.042;6.812;2023-07-29T09:29:55;4.43;;;3.13;;
31966;SDS011;18496;52.042;6.812;2023-07-29T09:32:17;3.90;;;3.22;;
31966;SDS011;18496;52.042;6.812;2023-07-29T09:34:25;5.97;;;3.60;;
31966;SDS011;18496;52.042;6.812;2023-07-29T09:36:30;4.47;;;3.58;;
31966;SDS011;18496;52.042;6.812;2023-07-29T09:38:35;5.63;;;3.70;;
31966;SDS011;18496;52.042;6.812;2023-07-29T09:40:39;6.85;;;3.80;;
31966;SDS011;18496;52.042;6.812;2023-07-29T09:42:55;4.57;;;3.90;;
31966;SDS011;18496;52.042;6.812;2023-07-29T09:44:59;5.10;;;4.07;;
31966;SDS011;18496;52.042;6.812;2023-07-29T09:47:03;3.97;;;3.45;;
31966;SDS011;18496;52.042;6.812;2023-07-29T09:49:07;5.78;;;4.05;;
31966;SDS011;18496;52.042;6.812;2023-07-29T09:51:11;5.03;;;4.00;;
31966;SDS011;18496;52.042;6.812;2023-07-29T09:53:16;6.72;;;4.10;;
31966;SDS011;18496;52.042;6.812;2023-07-29T09:55:23;4.88;;;3.40;;
31966;SDS011;18496;52.042;6.812;2023-07-29T09:57:27;5.32;;;3.55;;
31966;SDS011;18496;52.042;6.812;2023-07-29T09:59:35;4.90;;;3.33;;
31966;SDS011;18496;52.042;6.812;2023-07-29T10:01:39;4.68;;;3.25;;
31966;SDS011;18496;52.042;6.812;2023-07-29T10:03:44;6.38;;;3.50;;
31966;SDS011;18496;52.042;6.812;2023-07-29T10:05:48;5.07;;;3.17;;
31966;SDS011;18496;52.042;6.812;2023-07-29T10:07:53;5.47;;;3.60;;
31966;SDS011;18496;52.042;6.812;2023-07-29T10:09:57;4.47;;;3.67;;
31966;SDS011;18496;52.042;6.812;2023-07-29T10:12:01;4.78;;;3.40;;
31966;SDS011;18496;52.042;6.812;2023-07-29T10:14:08;4.88;;;4.07;;
31966;SDS011;18496;52.042;6.812;2023-07-29T10:16:12;6.10;;;3.95;;
31966;SDS011;18496;52.042;6.812;2023-07-29T10:18:16;4.25;;;3.17;;
31966;SDS011;18496;52.042;6.812;2023-07-29T10:20:21;5.30;;;3.78;;
31966;SDS011;18496;52.042;6.812;2023-07-29T10:22:27;5.13;;;3.50;;
31966;SDS011;18496;52.042;6.812;2023-07-29T10:24:35;6.57;;;3.93;;
31966;SDS011;18496;52.042;6.812;2023-07-29T10:26:47;5.63;;;4.15;;
31966;SDS011;18496;52.042;6.812;2023-07-29T10:28:53;6.50;;;3.58;;
31966;SDS011;18496;52.042;6.812;2023-07-29T10:31:02;4.53;;;3.47;;
31966;SDS011;18496;52.042;6.812;2023-07-29T10:33:07;6.50;;;3.60;;
31966;SDS011;18496;52.042;6.812;2023-07-29T10:35:13;7.15;;;3.60;;
31966;SDS011;18496;52.042;6.812;2023-07-29T10:37:18;7.38;;;3.42;;
31966;SDS011;18496;52.042;6.812;2023-07-29T10:39:23;5.43;;;3.65;;
31966;SDS011;18496;52.042;6.812;2023-07-29T10:44:00;4.15;;;3.17;;
31966;SDS011;18496;52.042;6.812;2023-07-29T10:46:20;4.03;;;2.83;;
31966;SDS011;18496;52.042;6.812;2023-07-29T10:50:38;3.70;;;2.97;;
31966;SDS011;18496;52.042;6.812;2023-07-29T10:52:42;4.25;;;2.50;;
31966;SDS011;18496;52.042;6.812;2023-07-29T10:54:46;4.22;;;2.75;;
31966;SDS011;18496;52.042;6.812;2023-07-29T10:56:51;3.47;;;2.67;;
31966;SDS011;18496;52.042;6.812;2023-07-29T10:58:55;4.05;;;2.47;;
31966;SDS011;18496;52.042;6.812;2023-07-29T11:01:02;3.50;;;2.58;;
31966;SDS011;18496;52.042;6.812;2023-07-29T11:03:16;4.18;;;2.50;;
31966;SDS011;18496;52.042;6.812;2023-07-29T11:05:19;3.45;;;2.38;;
31966;SDS011;18496;52.042;6.812;2023-07-29T11:07:24;3.13;;;2.70;;
31966;SDS011;18496;52.042;6.812;2023-07-29T11:11:53;6.15;;;2.50;;
31966;SDS011;18496;52.042;6.812;2023-07-29T11:14:00;5.40;;;2.53;;
31966;SDS011;18496;52.042;6.812;2023-07-29T11:16:05;3.25;;;2.38;;
31966;SDS011;18496;52.042;6.812;2023-07-29T11:18:09;4.72;;;2.65;;
31966;SDS011;18496;52.042;6.812;2023-07-29T11:20:19;3.50;;;2.25;;
31966;SDS011;18496;52.042;6.812;2023-07-29T11:22:27;3.42;;;2.28;;
31966;SDS011;18496;52.042;6.812;2023-07-29T11:24:31;4.78;;;2.40;;
31966;SDS011;18496;52.042;6.812;2023-07-29T11:26:36;3.63;;;2.42;;
31966;SDS011;18496;52.042;6.812;2023-07-29T11:28:40;4.25;;;2.75;;
31966;SDS011;18496;52.042;6.812;2023-07-29T11:30:44;4.45;;;2.63;;
31966;SDS011;18496;52.042;6.812;2023-07-29T11:32:48;3.75;;;2.50;;
31966;SDS011;18496;52.042;6.812;2023-07-29T11:34:52;2.58;;;2.20;;
31966;SDS011;18496;52.042;6.812;2023-07-29T11:36:56;4.55;;;2.28;;
31966;SDS011;18496;52.042;6.812;2023-07-29T11:39:00;2.53;;;2.33;;
31966;SDS011;18496;52.042;6.812;2023-07-29T11:41:11;3.92;;;2.65;;
31966;SDS011;18496;52.042;6.812;2023-07-29T11:43:17;5.85;;;2.78;;
31966;SDS011;18496;52.042;6.812;2023-07-29T11:45:22;5.32;;;2.92;;
31966;SDS011;18496;52.042;6.812;2023-07-29T11:47:26;5.55;;;2.97;;
31966;SDS011;18496;52.042;6.812;2023-07-29T11:49:30;2.47;;;2.28;;
31966;SDS011;18496;52.042;6.812;2023-07-29T11:51:38;3.63;;;2.40;;
31966;SDS011;18496;52.042;6.812;2023-07-29T11:53:44;3.53;;;2.42;;
31966;SDS011;18496;52.042;6.812;2023-07-29T11:55:51;6.60;;;2.85;;
31966;SDS011;18496;52.042;6.812;2023-07-29T11:57:56;3.60;;;2.70;;
31966;SDS011;18496;52.042;6.812;2023-07-29T12:00:04;4.10;;;2.58;;
31966;SDS011;18496;52.042;6.812;2023-07-29T12:02:15;4.68;;;2.83;;
31966;SDS011;18496;52.042;6.812;2023-07-29T12:04:20;3.97;;;3.10;;
31966;SDS011;18496;52.042;6.812;2023-07-29T12:06:24;3.38;;;2.97;;
31966;SDS011;18496;52.042;6.812;2023-07-29T12:08:28;6.00;;;2.88;;
31966;SDS011;18496;52.042;6.812;2023-07-29T12:10:32;5.28;;;2.95;;
31966;SDS011;18496;52.042;6.812;2023-07-29T12:12:40;4.32;;;2.72;;
31966;SDS011;18496;52.042;6.812;2023-07-29T12:14:48;6.00;;;2.85;;
31966;SDS011;18496;52.042;6.812;2023-07-29T12:16:52;3.80;;;2.47;;
31966;SDS011;18496;52.042;6.812;2023-07-29T12:18:56;2.95;;;2.25;;
31966;SDS011;18496;52.042;6.812;2023-07-29T12:21:03;2.17;;;1.98;;
31966;SDS011;18496;52.042;6.812;2023-07-29T12:23:07;3.63;;;2.28;;
31966;SDS011;18496;52.042;6.812;2023-07-29T12:25:11;3.00;;;2.38;;
31966;SDS011;18496;52.042;6.812;2023-07-29T12:27:15;4.60;;;2.60;;
31966;SDS011;18496;52.042;6.812;2023-07-29T12:29:24;7.10;;;2.53;;
31966;SDS011;18496;52.042;6.812;2023-07-29T12:31:32;2.55;;;2.20;;
31966;SDS011;18496;52.042;6.812;2023-07-29T12:33:36;2.78;;;1.83;;
31966;SDS011;18496;52.042;6.812;2023-07-29T12:35:45;2.92;;;2.10;;
31966;SDS011;18496;52.042;6.812;2023-07-29T12:37:58;3.00;;;2.33;;
31966;SDS011;18496;52.042;6.812;2023-07-29T12:40:02;6.03;;;2.38;;
31966;SDS011;18496;52.042;6.812;2023-07-29T12:42:06;14.73;;;1.80;;
31966;SDS011;18496;52.042;6.812;2023-07-29T12:44:10;5.47;;;2.40;;
31966;SDS011;18496;52.042;6.812;2023-07-29T12:46:14;2.53;;;2.00;;